sensor_id;sensor_type;location;lat;lon;timestamp;P1;durP1;ratioP1;P2;durP2;ratioP2
38847;SDS011;24602;44.780;20.408;2022-07-22T00:01:54;10.52;;;7.55;;
38847;SDS011;24602;44.780;20.408;2022-07-22T00:04:21;12.23;;;6.90;;
38847;SDS011;24602;44.780;20.408;2022-07-22T00:06:49;14.20;;;6.15;;
38847;SDS011;24602;44.780;20.408;2022-07-22T00:09:17;25.58;;;7.60;;
38847;SDS011;24602;44.780;20.408;2022-07-22T00:11:45;13.10;;;6.40;;
38847;SDS011;24602;44.780;20.408;2022-07-22T00:14:12;13.45;;;6.38;;
38847;SDS011;24602;44.780;20.408;2022-07-22T00:16:39;15.48;;;7.25;;
38847;SDS011;24602;44.780;20.408;2022-07-22T00:19:07;13.43;;;7.03;;
38847;SDS011;24602;44.780;20.408;2022-07-22T00:21:37;12.40;;;6.15;;
38847;SDS011;24602;44.780;20.408;2022-07-22T00:24:04;11.32;;;5.78;;
38847;SDS011;24602;44.780;20.408;2022-07-22T00:26:32;10.45;;;6.35;;
38847;SDS011;24602;44.780;20.408;2022-07-22T00:28:59;17.27;;;6.60;;
38847;SDS011;24602;44.780;20.408;2022-07-22T00:31:27;15.57;;;6.43;;
38847;SDS011;24602;44.780;20.408;2022-07-22T00:33:54;12.98;;;6.03;;
38847;SDS011;24602;44.780;20.408;2022-07-22T00:36:21;13.63;;;5.97;;
38847;SDS011;24602;44.780;20.408;2022-07-22T00:38:48;14.60;;;6.55;;
38847;SDS011;24602;44.780;20.408;2022-07-22T00:41:16;12.48;;;6.32;;
38847;SDS011;24602;44.780;20.408;2022-07-22T00:46:46;15.32;;;6.38;;
38847;SDS011;24602;44.780;20.408;2022-07-22T00:49:14;14.93;;;6.75;;
38847;SDS011;24602;44.780;20.408;2022-07-22T00:51:42;13.18;;;7.13;;
38847;SDS011;24602;44.780;20.408;2022-07-22T00:54:11;16.30;;;7.20;;
38847;SDS011;24602;44.780;20.408;2022-07-22T00:56:39;12.52;;;6.65;;
38847;SDS011;24602;44.780;20.408;2022-07-22T00:59:08;16.48;;;6.93;;
38847;SDS011;24602;44.780;20.408;2022-07-22T01:01:37;12.70;;;6.43;;
38847;SDS011;24602;44.780;20.408;2022-07-22T01:04:05;11.50;;;5.43;;
38847;SDS011;24602;44.780;20.408;2022-07-22T01:06:33;12.70;;;6.35;;
38847;SDS011;24602;44.780;20.408;2022-07-22T01:09:01;10.02;;;6.70;;
38847;SDS011;24602;44.780;20.408;2022-07-22T01:11:28;12.73;;;7.07;;
38847;SDS011;24602;44.780;20.408;2022-07-22T01:13:56;14.68;;;7.32;;
38847;SDS011;24602;44.780;20.408;2022-07-22T01:16:24;14.55;;;6.53;;
38847;SDS011;24602;44.780;20.408;2022-07-22T01:18:52;11.38;;;6.43;;
38847;SDS011;24602;44.780;20.408;2022-07-22T01:21:20;14.80;;;6.50;;
38847;SDS011;24602;44.780;20.408;2022-07-22T01:23:48;17.00;;;7.57;;
38847;SDS011;24602;44.780;20.408;2022-07-22T01:26:16;10.90;;;7.25;;
38847;SDS011;24602;44.780;20.408;2022-07-22T01:28:44;16.65;;;7.53;;
38847;SDS011;24602;44.780;20.408;2022-07-22T01:31:12;17.08;;;8.10;;
38847;SDS011;24602;44.780;20.408;2022-07-22T01:33:40;11.27;;;8.35;;
38847;SDS011;24602;44.780;20.408;2022-07-22T01:36:07;12.73;;;8.32;;
38847;SDS011;24602;44.780;20.408;2022-07-22T01:38:35;13.32;;;7.82;;
38847;SDS011;24602;44.780;20.408;2022-07-22T01:41:03;19.77;;;8.52;;
38847;SDS011;24602;44.780;20.408;2022-07-22T01:43:31;13.48;;;7.60;;
38847;SDS011;24602;44.780;20.408;2022-07-22T01:45:58;12.95;;;7.30;;
38847;SDS011;24602;44.780;20.408;2022-07-22T01:48:26;15.45;;;8.00;;
38847;SDS011;24602;44.780;20.408;2022-07-22T01:50:53;12.60;;;6.97;;
38847;SDS011;24602;44.780;20.408;2022-07-22T01:53:21;15.25;;;7.18;;
38847;SDS011;24602;44.780;20.408;2022-07-22T01:55:49;10.95;;;6.82;;
38847;SDS011;24602;44.780;20.408;2022-07-22T01:58:18;14.02;;;7.15;;
38847;SDS011;24602;44.780;20.408;2022-07-22T02:00:47;12.60;;;6.50;;
38847;SDS011;24602;44.780;20.408;2022-07-22T02:03:14;11.85;;;6.55;;
38847;SDS011;24602;44.780;20.408;2022-07-22T02:05:42;17.33;;;7.35;;
38847;SDS011;24602;44.780;20.408;2022-07-22T02:08:21;13.85;;;7.00;;
38847;SDS011;24602;44.780;20.408;2022-07-22T02:11:11;12.90;;;6.68;;
38847;SDS011;24602;44.780;20.408;2022-07-22T02:13:55;13.93;;;6.10;;
38847;SDS011;24602;44.780;20.408;2022-07-22T02:16:25;13.88;;;6.93;;
38847;SDS011;24602;44.780;20.408;2022-07-22T02:18:53;13.57;;;7.47;;
38847;SDS011;24602;44.780;20.408;2022-07-22T02:21:21;19.55;;;6.18;;
38847;SDS011;24602;44.780;20.408;2022-07-22T02:23:52;14.93;;;6.88;;
38847;SDS011;24602;44.780;20.408;2022-07-22T02:26:20;11.30;;;5.00;;
38847;SDS011;24602;44.780;20.408;2022-07-22T02:28:47;11.23;;;5.60;;
38847;SDS011;24602;44.780;20.408;2022-07-22T02:31:14;9.48;;;5.18;;
38847;SDS011;24602;44.780;20.408;2022-07-22T02:33:41;14.20;;;5.90;;
38847;SDS011;24602;44.780;20.408;2022-07-22T02:36:09;12.48;;;6.05;;
38847;SDS011;24602;44.780;20.408;2022-07-22T02:38:37;13.57;;;6.32;;
38847;SDS011;24602;44.780;20.408;2022-07-22T02:41:04;10.88;;;5.60;;
38847;SDS011;24602;44.780;20.408;2022-07-22T02:43:34;9.48;;;5.97;;
38847;SDS011;24602;44.780;20.408;2022-07-22T02:46:01;10.88;;;5.75;;
38847;SDS011;24602;44.780;20.408;2022-07-22T02:48:29;12.95;;;5.88;;
38847;SDS011;24602;44.780;20.408;2022-07-22T02:50:57;13.55;;;6.05;;
38847;SDS011;24602;44.780;20.408;2022-07-22T02:53:27;17.38;;;5.78;;
38847;SDS011;24602;44.780;20.408;2022-07-22T02:55:56;16.08;;;6.40;;
38847;SDS011;24602;44.780;20.408;2022-07-22T02:58:23;11.43;;;5.45;;
38847;SDS011;24602;44.780;20.408;2022-07-22T03:00:50;9.75;;;5.07;;
38847;SDS011;24602;44.780;20.408;2022-07-22T03:03:18;18.33;;;5.32;;
38847;SDS011;24602;44.780;20.408;2022-07-22T03:05:45;11.68;;;4.93;;
38847;SDS011;24602;44.780;20.408;2022-07-22T03:08:21;13.10;;;5.93;;
38847;SDS011;24602;44.780;20.408;2022-07-22T03:10:49;19.40;;;5.22;;
38847;SDS011;24602;44.780;20.408;2022-07-22T03:13:16;9.40;;;4.15;;
38847;SDS011;24602;44.780;20.408;2022-07-22T03:15:44;14.65;;;5.03;;
38847;SDS011;24602;44.780;20.408;2022-07-22T03:18:12;16.08;;;5.43;;
38847;SDS011;24602;44.780;20.408;2022-07-22T03:20:40;12.23;;;4.68;;
38847;SDS011;24602;44.780;20.408;2022-07-22T03:23:08;16.92;;;5.15;;
38847;SDS011;24602;44.780;20.408;2022-07-22T03:25:36;13.13;;;4.85;;
38847;SDS011;24602;44.780;20.408;2022-07-22T03:28:05;12.90;;;5.15;;
38847;SDS011;24602;44.780;20.408;2022-07-22T03:30:34;18.10;;;5.15;;
38847;SDS011;24602;44.780;20.408;2022-07-22T03:33:02;12.73;;;4.50;;
38847;SDS011;24602;44.780;20.408;2022-07-22T03:35:34;10.95;;;4.70;;
38847;SDS011;24602;44.780;20.408;2022-07-22T03:38:02;12.70;;;4.22;;
38847;SDS011;24602;44.780;20.408;2022-07-22T03:40:30;11.05;;;4.90;;
38847;SDS011;24602;44.780;20.408;2022-07-22T03:42:58;7.05;;;4.90;;
38847;SDS011;24602;44.780;20.408;2022-07-22T03:45:25;10.75;;;5.20;;
38847;SDS011;24602;44.780;20.408;2022-07-22T03:47:53;16.45;;;5.38;;
38847;SDS011;24602;44.780;20.408;2022-07-22T03:50:23;9.95;;;5.38;;
38847;SDS011;24602;44.780;20.408;2022-07-22T03:52:51;16.75;;;5.63;;
38847;SDS011;24602;44.780;20.408;2022-07-22T03:55:18;14.50;;;5.63;;
38847;SDS011;24602;44.780;20.408;2022-07-22T03:57:50;15.57;;;6.28;;
38847;SDS011;24602;44.780;20.408;2022-07-22T04:00:23;22.83;;;5.60;;
38847;SDS011;24602;44.780;20.408;2022-07-22T04:02:51;14.45;;;5.57;;
38847;SDS011;24602;44.780;20.408;2022-07-22T04:05:28;18.02;;;5.68;;
38847;SDS011;24602;44.780;20.408;2022-07-22T04:07:55;13.45;;;5.75;;
38847;SDS011;24602;44.780;20.408;2022-07-22T04:10:23;13.80;;;5.80;;
38847;SDS011;24602;44.780;20.408;2022-07-22T04:12:50;12.65;;;5.55;;
38847;SDS011;24602;44.780;20.408;2022-07-22T04:15:25;12.65;;;5.53;;
38847;SDS011;24602;44.780;20.408;2022-07-22T04:17:53;11.23;;;4.60;;
38847;SDS011;24602;44.780;20.408;2022-07-22T04:20:21;10.15;;;5.05;;
38847;SDS011;24602;44.780;20.408;2022-07-22T04:23:06;15.90;;;5.00;;
38847;SDS011;24602;44.780;20.408;2022-07-22T04:25:34;17.05;;;4.80;;
38847;SDS011;24602;44.780;20.408;2022-07-22T04:28:02;10.70;;;5.00;;
38847;SDS011;24602;44.780;20.408;2022-07-22T04:30:30;20.52;;;6.13;;
38847;SDS011;24602;44.780;20.408;2022-07-22T04:32:59;12.82;;;5.60;;
38847;SDS011;24602;44.780;20.408;2022-07-22T04:35:27;12.85;;;5.95;;
38847;SDS011;24602;44.780;20.408;2022-07-22T04:38:07;15.27;;;5.57;;
38847;SDS011;24602;44.780;20.408;2022-07-22T04:40:36;15.68;;;5.47;;
38847;SDS011;24602;44.780;20.408;2022-07-22T04:43:03;15.93;;;4.93;;
38847;SDS011;24602;44.780;20.408;2022-07-22T04:45:31;14.30;;;4.72;;
38847;SDS011;24602;44.780;20.408;2022-07-22T04:47:59;14.75;;;5.10;;
38847;SDS011;24602;44.780;20.408;2022-07-22T04:50:26;17.65;;;4.72;;
38847;SDS011;24602;44.780;20.408;2022-07-22T04:52:58;12.35;;;4.82;;
38847;SDS011;24602;44.780;20.408;2022-07-22T04:55:26;25.17;;;5.30;;
38847;SDS011;24602;44.780;20.408;2022-07-22T04:57:53;11.65;;;4.13;;
38847;SDS011;24602;44.780;20.408;2022-07-22T05:00:21;14.02;;;4.90;;
38847;SDS011;24602;44.780;20.408;2022-07-22T05:02:52;10.18;;;4.20;;
38847;SDS011;24602;44.780;20.408;2022-07-22T05:05:20;11.63;;;4.80;;
38847;SDS011;24602;44.780;20.408;2022-07-22T05:07:48;9.70;;;4.25;;
38847;SDS011;24602;44.780;20.408;2022-07-22T05:10:16;22.33;;;5.18;;
38847;SDS011;24602;44.780;20.408;2022-07-22T05:12:47;17.17;;;5.43;;
38847;SDS011;24602;44.780;20.408;2022-07-22T05:15:15;13.25;;;4.25;;
38847;SDS011;24602;44.780;20.408;2022-07-22T05:17:42;8.30;;;4.40;;
38847;SDS011;24602;44.780;20.408;2022-07-22T05:20:31;9.55;;;4.65;;
38847;SDS011;24602;44.780;20.408;2022-07-22T05:22:58;8.25;;;4.38;;
38847;SDS011;24602;44.780;20.408;2022-07-22T05:25:29;11.00;;;4.20;;
38847;SDS011;24602;44.780;20.408;2022-07-22T05:27:57;11.95;;;4.22;;
38847;SDS011;24602;44.780;20.408;2022-07-22T05:30:29;9.45;;;4.38;;
38847;SDS011;24602;44.780;20.408;2022-07-22T05:32:57;15.23;;;5.25;;
38847;SDS011;24602;44.780;20.408;2022-07-22T05:35:59;22.13;;;5.20;;
38847;SDS011;24602;44.780;20.408;2022-07-22T05:38:33;14.25;;;4.70;;
38847;SDS011;24602;44.780;20.408;2022-07-22T05:41:02;16.02;;;4.47;;
38847;SDS011;24602;44.780;20.408;2022-07-22T05:43:30;10.57;;;4.15;;
38847;SDS011;24602;44.780;20.408;2022-07-22T05:45:58;8.82;;;4.00;;
38847;SDS011;24602;44.780;20.408;2022-07-22T05:48:26;10.52;;;4.68;;
38847;SDS011;24602;44.780;20.408;2022-07-22T05:50:53;10.18;;;4.05;;
38847;SDS011;24602;44.780;20.408;2022-07-22T05:53:20;12.15;;;4.63;;
38847;SDS011;24602;44.780;20.408;2022-07-22T05:55:48;10.68;;;4.55;;
38847;SDS011;24602;44.780;20.408;2022-07-22T05:58:15;13.20;;;4.72;;
38847;SDS011;24602;44.780;20.408;2022-07-22T06:00:42;14.45;;;4.95;;
38847;SDS011;24602;44.780;20.408;2022-07-22T06:03:10;12.52;;;4.65;;
38847;SDS011;24602;44.780;20.408;2022-07-22T06:05:44;12.10;;;4.70;;
38847;SDS011;24602;44.780;20.408;2022-07-22T06:08:11;16.50;;;4.65;;
38847;SDS011;24602;44.780;20.408;2022-07-22T06:10:47;19.42;;;5.25;;
38847;SDS011;24602;44.780;20.408;2022-07-22T06:13:16;12.93;;;4.78;;
38847;SDS011;24602;44.780;20.408;2022-07-22T06:15:43;17.60;;;5.10;;
38847;SDS011;24602;44.780;20.408;2022-07-22T06:18:11;19.48;;;4.97;;
38847;SDS011;24602;44.780;20.408;2022-07-22T06:20:39;23.27;;;5.15;;
38847;SDS011;24602;44.780;20.408;2022-07-22T06:23:07;15.32;;;5.00;;
38847;SDS011;24602;44.780;20.408;2022-07-22T06:25:35;16.73;;;4.50;;
38847;SDS011;24602;44.780;20.408;2022-07-22T06:28:23;20.73;;;5.25;;
38847;SDS011;24602;44.780;20.408;2022-07-22T06:30:51;13.27;;;5.03;;
38847;SDS011;24602;44.780;20.408;2022-07-22T06:33:20;13.43;;;4.03;;
38847;SDS011;24602;44.780;20.408;2022-07-22T06:35:47;16.55;;;4.82;;
38847;SDS011;24602;44.780;20.408;2022-07-22T06:38:15;12.30;;;5.10;;
38847;SDS011;24602;44.780;20.408;2022-07-22T06:41:38;20.38;;;5.03;;
38847;SDS011;24602;44.780;20.408;2022-07-22T06:44:21;16.10;;;4.55;;
38847;SDS011;24602;44.780;20.408;2022-07-22T06:47:06;16.58;;;4.93;;
38847;SDS011;24602;44.780;20.408;2022-07-22T06:49:35;15.75;;;4.65;;
38847;SDS011;24602;44.780;20.408;2022-07-22T06:52:04;22.17;;;5.05;;
38847;SDS011;24602;44.780;20.408;2022-07-22T06:54:31;23.48;;;5.53;;
38847;SDS011;24602;44.780;20.408;2022-07-22T06:57:01;20.05;;;5.22;;
38847;SDS011;24602;44.780;20.408;2022-07-22T06:59:32;11.50;;;4.82;;
38847;SDS011;24602;44.780;20.408;2022-07-22T07:02:05;16.20;;;4.53;;
38847;SDS011;24602;44.780;20.408;2022-07-22T07:04:36;15.65;;;4.55;;
38847;SDS011;24602;44.780;20.408;2022-07-22T07:07:04;14.82;;;4.93;;
38847;SDS011;24602;44.780;20.408;2022-07-22T07:09:32;13.48;;;4.70;;
38847;SDS011;24602;44.780;20.408;2022-07-22T07:12:12;14.32;;;4.68;;
38847;SDS011;24602;44.780;20.408;2022-07-22T07:14:59;16.35;;;4.53;;
38847;SDS011;24602;44.780;20.408;2022-07-22T07:17:47;13.43;;;4.35;;
38847;SDS011;24602;44.780;20.408;2022-07-22T07:20:15;14.48;;;4.57;;
38847;SDS011;24602;44.780;20.408;2022-07-22T07:22:43;23.10;;;4.60;;
38847;SDS011;24602;44.780;20.408;2022-07-22T07:25:11;15.82;;;4.57;;
38847;SDS011;24602;44.780;20.408;2022-07-22T07:27:51;12.73;;;4.13;;
38847;SDS011;24602;44.780;20.408;2022-07-22T07:30:30;11.07;;;4.15;;
38847;SDS011;24602;44.780;20.408;2022-07-22T07:32:58;12.55;;;4.35;;
38847;SDS011;24602;44.780;20.408;2022-07-22T07:35:26;14.15;;;4.68;;
38847;SDS011;24602;44.780;20.408;2022-07-22T07:37:58;13.38;;;4.60;;
38847;SDS011;24602;44.780;20.408;2022-07-22T07:40:25;7.55;;;4.15;;
38847;SDS011;24602;44.780;20.408;2022-07-22T07:42:53;12.25;;;4.90;;
38847;SDS011;24602;44.780;20.408;2022-07-22T07:45:30;13.10;;;4.40;;
38847;SDS011;24602;44.780;20.408;2022-07-22T07:47:57;10.57;;;4.18;;
38847;SDS011;24602;44.780;20.408;2022-07-22T07:50:25;11.40;;;4.25;;
38847;SDS011;24602;44.780;20.408;2022-07-22T07:52:54;13.68;;;4.38;;
38847;SDS011;24602;44.780;20.408;2022-07-22T07:55:24;10.82;;;3.67;;
38847;SDS011;24602;44.780;20.408;2022-07-22T07:57:51;12.27;;;4.50;;
38847;SDS011;24602;44.780;20.408;2022-07-22T08:00:21;17.55;;;4.90;;
38847;SDS011;24602;44.780;20.408;2022-07-22T08:02:50;11.20;;;4.50;;
38847;SDS011;24602;44.780;20.408;2022-07-22T08:05:19;12.38;;;4.38;;
38847;SDS011;24602;44.780;20.408;2022-07-22T08:07:50;9.90;;;4.45;;
38847;SDS011;24602;44.780;20.408;2022-07-22T08:10:18;14.48;;;4.25;;
38847;SDS011;24602;44.780;20.408;2022-07-22T08:13:24;10.60;;;3.47;;
38847;SDS011;24602;44.780;20.408;2022-07-22T08:16:07;12.95;;;3.78;;
38847;SDS011;24602;44.780;20.408;2022-07-22T08:18:36;11.43;;;3.97;;
38847;SDS011;24602;44.780;20.408;2022-07-22T08:21:04;8.57;;;3.30;;
38847;SDS011;24602;44.780;20.408;2022-07-22T08:23:38;13.45;;;3.83;;
38847;SDS011;24602;44.780;20.408;2022-07-22T08:26:05;10.95;;;3.72;;
38847;SDS011;24602;44.780;20.408;2022-07-22T08:28:33;5.43;;;2.88;;
38847;SDS011;24602;44.780;20.408;2022-07-22T08:31:00;11.50;;;3.20;;
38847;SDS011;24602;44.780;20.408;2022-07-22T08:33:31;8.55;;;3.47;;
38847;SDS011;24602;44.780;20.408;2022-07-22T08:35:59;7.90;;;3.20;;
38847;SDS011;24602;44.780;20.408;2022-07-22T08:38:27;5.82;;;2.33;;
38847;SDS011;24602;44.780;20.408;2022-07-22T08:40:55;4.38;;;2.10;;
38847;SDS011;24602;44.780;20.408;2022-07-22T08:43:31;4.72;;;1.60;;
38847;SDS011;24602;44.780;20.408;2022-07-22T08:46:04;4.55;;;2.40;;
38847;SDS011;24602;44.780;20.408;2022-07-22T08:48:46;9.20;;;2.70;;
38847;SDS011;24602;44.780;20.408;2022-07-22T08:51:34;5.57;;;2.70;;
38847;SDS011;24602;44.780;20.408;2022-07-22T08:54:32;6.75;;;2.78;;
38847;SDS011;24602;44.780;20.408;2022-07-22T08:57:03;5.80;;;3.30;;
38847;SDS011;24602;44.780;20.408;2022-07-22T08:59:31;9.02;;;3.20;;
38847;SDS011;24602;44.780;20.408;2022-07-22T09:02:06;8.93;;;3.28;;
38847;SDS011;24602;44.780;20.408;2022-07-22T09:08:03;8.32;;;3.50;;
38847;SDS011;24602;44.780;20.408;2022-07-22T09:10:50;8.93;;;3.85;;
38847;SDS011;24602;44.780;20.408;2022-07-22T09:13:36;5.93;;;2.95;;
38847;SDS011;24602;44.780;20.408;2022-07-22T09:16:43;11.60;;;3.17;;
38847;SDS011;24602;44.780;20.408;2022-07-22T09:19:39;8.07;;;2.75;;
38847;SDS011;24602;44.780;20.408;2022-07-22T09:22:37;8.20;;;3.17;;
38847;SDS011;24602;44.780;20.408;2022-07-22T09:25:31;12.40;;;2.88;;
38847;SDS011;24602;44.780;20.408;2022-07-22T09:28:22;7.55;;;3.40;;
38847;SDS011;24602;44.780;20.408;2022-07-22T09:34:31;9.10;;;2.75;;
38847;SDS011;24602;44.780;20.408;2022-07-22T09:37:17;6.50;;;3.00;;
38847;SDS011;24602;44.780;20.408;2022-07-22T09:39:50;7.60;;;2.72;;
38847;SDS011;24602;44.780;20.408;2022-07-22T09:42:18;7.55;;;2.33;;
38847;SDS011;24602;44.780;20.408;2022-07-22T09:44:47;7.70;;;2.60;;
38847;SDS011;24602;44.780;20.408;2022-07-22T09:47:34;6.22;;;2.10;;
38847;SDS011;24602;44.780;20.408;2022-07-22T09:50:24;4.22;;;1.95;;
38847;SDS011;24602;44.780;20.408;2022-07-22T09:53:20;6.70;;;2.35;;
38847;SDS011;24602;44.780;20.408;2022-07-22T09:55:57;5.10;;;2.33;;
38847;SDS011;24602;44.780;20.408;2022-07-22T09:58:26;8.15;;;1.92;;
38847;SDS011;24602;44.780;20.408;2022-07-22T10:00:57;6.97;;;2.95;;
38847;SDS011;24602;44.780;20.408;2022-07-22T10:03:28;7.68;;;2.70;;
38847;SDS011;24602;44.780;20.408;2022-07-22T10:05:59;6.97;;;2.63;;
38847;SDS011;24602;44.780;20.408;2022-07-22T10:08:30;10.38;;;2.97;;
38847;SDS011;24602;44.780;20.408;2022-07-22T10:11:00;6.68;;;2.80;;
38847;SDS011;24602;44.780;20.408;2022-07-22T10:13:32;3.08;;;2.05;;
38847;SDS011;24602;44.780;20.408;2022-07-22T10:16:04;4.30;;;1.92;;
38847;SDS011;24602;44.780;20.408;2022-07-22T10:18:32;6.90;;;1.67;;
38847;SDS011;24602;44.780;20.408;2022-07-22T10:21:05;7.68;;;1.50;;
38847;SDS011;24602;44.780;20.408;2022-07-22T10:23:34;5.03;;;1.58;;
38847;SDS011;24602;44.780;20.408;2022-07-22T10:26:04;8.25;;;1.58;;
38847;SDS011;24602;44.780;20.408;2022-07-22T10:28:33;4.20;;;1.50;;
38847;SDS011;24602;44.780;20.408;2022-07-22T10:31:16;3.58;;;1.52;;
38847;SDS011;24602;44.780;20.408;2022-07-22T10:33:53;6.38;;;1.60;;
38847;SDS011;24602;44.780;20.408;2022-07-22T10:36:30;3.63;;;1.58;;
38847;SDS011;24602;44.780;20.408;2022-07-22T10:41:34;5.13;;;1.40;;
38847;SDS011;24602;44.780;20.408;2022-07-22T10:44:07;5.68;;;2.10;;
38847;SDS011;24602;44.780;20.408;2022-07-22T10:46:51;3.47;;;1.58;;
38847;SDS011;24602;44.780;20.408;2022-07-22T10:49:21;3.33;;;1.90;;
38847;SDS011;24602;44.780;20.408;2022-07-22T10:57:41;6.40;;;1.60;;
38847;SDS011;24602;44.780;20.408;2022-07-22T11:00:08;8.45;;;1.85;;
38847;SDS011;24602;44.780;20.408;2022-07-22T11:02:36;6.35;;;1.65;;
38847;SDS011;24602;44.780;20.408;2022-07-22T11:05:04;8.10;;;3.63;;
38847;SDS011;24602;44.780;20.408;2022-07-22T11:07:32;4.82;;;1.67;;
38847;SDS011;24602;44.780;20.408;2022-07-22T11:10:10;5.20;;;1.73;;
38847;SDS011;24602;44.780;20.408;2022-07-22T11:12:45;2.95;;;1.95;;
38847;SDS011;24602;44.780;20.408;2022-07-22T11:15:14;2.95;;;1.92;;
38847;SDS011;24602;44.780;20.408;2022-07-22T11:17:41;1.98;;;1.60;;
38847;SDS011;24602;44.780;20.408;2022-07-22T11:20:10;7.75;;;1.80;;
38847;SDS011;24602;44.780;20.408;2022-07-22T11:22:38;8.93;;;1.85;;
38847;SDS011;24602;44.780;20.408;2022-07-22T11:25:07;3.30;;;1.77;;
38847;SDS011;24602;44.780;20.408;2022-07-22T11:27:36;4.57;;;1.90;;
38847;SDS011;24602;44.780;20.408;2022-07-22T11:30:04;4.30;;;2.03;;
38847;SDS011;24602;44.780;20.408;2022-07-22T11:32:41;5.13;;;2.75;;
38847;SDS011;24602;44.780;20.408;2022-07-22T11:35:12;10.57;;;2.67;;
38847;SDS011;24602;44.780;20.408;2022-07-22T11:37:40;5.57;;;1.95;;
38847;SDS011;24602;44.780;20.408;2022-07-22T11:40:07;4.05;;;2.65;;
38847;SDS011;24602;44.780;20.408;2022-07-22T11:42:36;4.50;;;2.40;;
38847;SDS011;24602;44.780;20.408;2022-07-22T11:45:04;6.07;;;1.73;;
38847;SDS011;24602;44.780;20.408;2022-07-22T11:47:32;4.53;;;2.00;;
38847;SDS011;24602;44.780;20.408;2022-07-22T11:49:59;4.38;;;2.00;;
38847;SDS011;24602;44.780;20.408;2022-07-22T11:52:28;5.97;;;3.15;;
38847;SDS011;24602;44.780;20.408;2022-07-22T11:54:55;7.90;;;5.45;;
38847;SDS011;24602;44.780;20.408;2022-07-22T11:57:23;4.05;;;2.20;;
38847;SDS011;24602;44.780;20.408;2022-07-22T11:59:50;4.50;;;2.65;;
38847;SDS011;24602;44.780;20.408;2022-07-22T12:02:17;6.15;;;1.88;;
38847;SDS011;24602;44.780;20.408;2022-07-22T12:04:47;19.00;;;2.28;;
38847;SDS011;24602;44.780;20.408;2022-07-22T12:07:15;3.78;;;1.70;;
38847;SDS011;24602;44.780;20.408;2022-07-22T12:09:42;2.83;;;1.58;;
38847;SDS011;24602;44.780;20.408;2022-07-22T12:12:11;3.63;;;1.80;;
38847;SDS011;24602;44.780;20.408;2022-07-22T12:14:44;7.22;;;3.97;;
38847;SDS011;24602;44.780;20.408;2022-07-22T12:17:14;6.82;;;2.92;;
38847;SDS011;24602;44.780;20.408;2022-07-22T12:19:42;6.38;;;2.20;;
38847;SDS011;24602;44.780;20.408;2022-07-22T12:22:11;5.00;;;1.55;;
38847;SDS011;24602;44.780;20.408;2022-07-22T12:24:46;8.80;;;2.17;;
38847;SDS011;24602;44.780;20.408;2022-07-22T12:27:29;4.37;;;2.67;;
38847;SDS011;24602;44.780;20.408;2022-07-22T12:29:57;4.10;;;2.15;;
38847;SDS011;24602;44.780;20.408;2022-07-22T12:32:26;12.57;;;3.55;;
38847;SDS011;24602;44.780;20.408;2022-07-22T12:37:23;8.75;;;1.88;;
38847;SDS011;24602;44.780;20.408;2022-07-22T12:40:03;4.35;;;3.25;;
38847;SDS011;24602;44.780;20.408;2022-07-22T12:42:33;10.60;;;3.55;;
38847;SDS011;24602;44.780;20.408;2022-07-22T12:47:37;10.18;;;3.90;;
38847;SDS011;24602;44.780;20.408;2022-07-22T12:50:32;5.97;;;2.80;;
38847;SDS011;24602;44.780;20.408;2022-07-22T12:55:48;2.38;;;1.20;;
38847;SDS011;24602;44.780;20.408;2022-07-22T12:58:23;3.92;;;1.58;;
38847;SDS011;24602;44.780;20.408;2022-07-22T13:00:53;5.05;;;4.07;;
38847;SDS011;24602;44.780;20.408;2022-07-22T13:03:24;8.32;;;3.03;;
38847;SDS011;24602;44.780;20.408;2022-07-22T13:05:58;3.55;;;1.75;;
38847;SDS011;24602;44.780;20.408;2022-07-22T13:08:27;8.27;;;2.45;;
38847;SDS011;24602;44.780;20.408;2022-07-22T13:11:10;5.30;;;1.67;;
38847;SDS011;24602;44.780;20.408;2022-07-22T13:13:37;5.47;;;2.00;;
38847;SDS011;24602;44.780;20.408;2022-07-22T13:16:04;5.20;;;1.63;;
38847;SDS011;24602;44.780;20.408;2022-07-22T13:18:32;3.55;;;1.13;;
38847;SDS011;24602;44.780;20.408;2022-07-22T13:20:59;5.82;;;1.67;;
38847;SDS011;24602;44.780;20.408;2022-07-22T13:23:27;5.43;;;1.90;;
38847;SDS011;24602;44.780;20.408;2022-07-22T13:25:54;4.80;;;2.58;;
38847;SDS011;24602;44.780;20.408;2022-07-22T13:28:22;6.90;;;3.35;;
38847;SDS011;24602;44.780;20.408;2022-07-22T13:30:50;3.60;;;1.35;;
38847;SDS011;24602;44.780;20.408;2022-07-22T13:33:17;7.20;;;1.83;;
38847;SDS011;24602;44.780;20.408;2022-07-22T13:35:44;4.28;;;1.42;;
38847;SDS011;24602;44.780;20.408;2022-07-22T13:38:11;6.55;;;2.10;;
38847;SDS011;24602;44.780;20.408;2022-07-22T13:40:45;3.63;;;2.05;;
38847;SDS011;24602;44.780;20.408;2022-07-22T13:43:18;3.25;;;1.88;;
38847;SDS011;24602;44.780;20.408;2022-07-22T13:45:50;3.67;;;2.13;;
38847;SDS011;24602;44.780;20.408;2022-07-22T13:48:18;3.90;;;1.42;;
38847;SDS011;24602;44.780;20.408;2022-07-22T13:50:47;2.45;;;1.85;;
38847;SDS011;24602;44.780;20.408;2022-07-22T13:53:14;3.17;;;1.80;;
38847;SDS011;24602;44.780;20.408;2022-07-22T13:55:41;4.03;;;2.70;;
38847;SDS011;24602;44.780;20.408;2022-07-22T13:58:09;7.70;;;3.40;;
38847;SDS011;24602;44.780;20.408;2022-07-22T14:00:36;3.25;;;2.72;;
38847;SDS011;24602;44.780;20.408;2022-07-22T14:03:04;3.38;;;1.92;;
38847;SDS011;24602;44.780;20.408;2022-07-22T14:05:32;7.40;;;2.45;;
38847;SDS011;24602;44.780;20.408;2022-07-22T14:08:00;5.15;;;1.90;;
38847;SDS011;24602;44.780;20.408;2022-07-22T14:10:27;2.97;;;2.08;;
38847;SDS011;24602;44.780;20.408;2022-07-22T14:12:55;8.50;;;1.98;;
38847;SDS011;24602;44.780;20.408;2022-07-22T14:15:22;2.25;;;1.77;;
38847;SDS011;24602;44.780;20.408;2022-07-22T14:17:50;2.53;;;1.40;;
38847;SDS011;24602;44.780;20.408;2022-07-22T14:20:17;1.50;;;1.20;;
38847;SDS011;24602;44.780;20.408;2022-07-22T14:22:44;6.50;;;2.42;;
38847;SDS011;24602;44.780;20.408;2022-07-22T14:25:12;5.03;;;3.60;;
38847;SDS011;24602;44.780;20.408;2022-07-22T14:27:39;2.25;;;1.83;;
38847;SDS011;24602;44.780;20.408;2022-07-22T14:30:06;4.20;;;2.20;;
38847;SDS011;24602;44.780;20.408;2022-07-22T14:32:34;5.43;;;2.03;;
38847;SDS011;24602;44.780;20.408;2022-07-22T14:35:02;3.72;;;2.90;;
38847;SDS011;24602;44.780;20.408;2022-07-22T14:37:32;3.28;;;2.22;;
38847;SDS011;24602;44.780;20.408;2022-07-22T14:40:00;5.72;;;1.40;;
38847;SDS011;24602;44.780;20.408;2022-07-22T14:42:29;7.57;;;1.80;;
38847;SDS011;24602;44.780;20.408;2022-07-22T14:44:56;4.80;;;2.78;;
38847;SDS011;24602;44.780;20.408;2022-07-22T14:47:23;4.85;;;2.88;;
38847;SDS011;24602;44.780;20.408;2022-07-22T14:49:51;2.70;;;2.03;;
38847;SDS011;24602;44.780;20.408;2022-07-22T14:52:19;4.90;;;1.65;;
38847;SDS011;24602;44.780;20.408;2022-07-22T14:54:46;2.03;;;1.33;;
38847;SDS011;24602;44.780;20.408;2022-07-22T14:57:13;3.13;;;2.30;;
38847;SDS011;24602;44.780;20.408;2022-07-22T14:59:41;3.78;;;2.80;;
38847;SDS011;24602;44.780;20.408;2022-07-22T15:02:08;4.22;;;2.67;;
38847;SDS011;24602;44.780;20.408;2022-07-22T15:04:35;5.75;;;2.17;;
38847;SDS011;24602;44.780;20.408;2022-07-22T15:07:02;4.93;;;1.70;;
38847;SDS011;24602;44.780;20.408;2022-07-22T15:09:30;3.55;;;2.67;;
38847;SDS011;24602;44.780;20.408;2022-07-22T15:11:58;4.00;;;1.90;;
38847;SDS011;24602;44.780;20.408;2022-07-22T15:14:25;5.07;;;2.15;;
38847;SDS011;24602;44.780;20.408;2022-07-22T15:16:52;3.22;;;1.80;;